Time;durP1;ratioP1;P1;durP2;ratioP2;P2;SDS_P1;SDS_P2;PMS_P1;PMS_P2;Temp;Humidity;BMP_temperature;BMP_pressure;BME280_temperature;BME280_humidity;BME280_pressure;Samples;Min_cycle;Max_cycle;Signal;HPM_P1;HPM_P2
2024/01/01 00:00:13;;;;;;;;;;;;;;;12.68;48.27;98984.81;4954115;28;7249;-74
2024/01/01 00:02:39;;;;;;;;;;;;;;;12.63;48.27;98996.72;4956118;28;6796;-74
2024/01/01 00:05:07;;;;;;;;;;;;;;;12.61;48.38;99001.84;4950035;28;7144;-75
2024/01/01 00:07:33;;;;;;;;;;;;;;;12.64;48.58;98998.47;4958178;28;7141;-74
2024/01/01 00:09:58;;;;;;;;;;;;;;;12.70;48.71;98997.69;4957121;28;6939;-75
2024/01/01 00:12:24;;;;;;;;;;;;;;;12.76;48.38;99002.94;4953820;28;7175;-75
2024/01/01 00:14:49;;;;;;;;;;;;;;;12.79;48.52;98995.28;4955992;28;6958;-75
2024/01/01 00:17:15;;;;;;;;;;;;;;;12.82;48.42;98986.75;4958751;28;7394;-74
2024/01/01 00:19:41;;;;;;;;;;;;;;;12.82;48.38;99000.47;4959424;28;6946;-74
2024/01/01 00:22:06;;;;;;;;;;;;;;;12.85;47.64;99003.09;4947743;28;6958;-74
2024/01/01 00:24:32;;;;;;;;;;;;;;;12.86;48.41;98999.69;4964422;28;6772;-75
2024/01/01 00:26:58;;;;;;;;;;;;;;;12.92;48.12;99006.63;4944139;28;8526;-74
2024/01/01 00:29:26;;;;;;;;;;;;;;;12.92;47.96;98997.19;4954612;28;7017;-77
2024/01/01 00:31:52;;;;;;;;;;;;;;;12.97;47.26;98999.84;4934806;28;6987;-78
2024/01/01 00:34:18;;;;;;;;;;;;;;;12.98;47.89;98993.84;4947695;28;7002;-78
2024/01/01 00:36:44;;;;;;;;;;;;;;;13.00;47.30;98986.16;4952573;28;7191;-78
2024/01/01 00:39:10;;;;;;;;;;;;;;;13.02;47.29;98989.63;4943498;28;6849;-78
2024/01/01 00:41:36;;;;;;;;;;;;;;;13.04;47.53;98987.97;4949011;28;7050;-78
2024/01/01 00:44:03;;;;;;;;;;;;;;;13.06;47.25;98991.41;4924488;28;6993;-77
2024/01/01 00:46:29;;;;;;;;;;;;;;;13.06;46.46;98987.13;4939011;28;6959;-78
2024/01/01 00:48:55;;;;;;;;;;;;;;;13.05;47.23;98974.25;4951346;28;6865;-78
2024/01/01 00:51:20;;;;;;;;;;;;;;;13.07;46.92;98964.84;4946926;28;7243;-78
2024/01/01 00:53:46;;;;;;;;;;;;;;;13.06;46.67;98965.69;4953979;28;6807;-77
2024/01/01 00:56:12;;;;;;;;;;;;;;;13.06;46.83;98965.69;4954534;28;6785;-78
2024/01/01 00:58:38;;;;;;;;;;;;;;;13.06;46.89;98965.69;4952093;28;7177;-78
2024/01/01 01:01:04;;;;;;;;;;;;;;;13.05;46.31;98958.81;4951184;28;6781;-78
2024/01/01 01:03:31;;;;;;;;;;;;;;;13.04;46.39;98960.50;4956336;28;6951;-79
2024/01/01 01:05:57;;;;;;;;;;;;;;;13.03;46.76;98963.94;4949743;28;8533;-78
2024/01/01 01:08:23;;;;;;;;;;;;;;;13.04;46.20;98967.38;4955335;28;6946;-77
2024/01/01 01:10:49;;;;;;;;;;;;;;;13.01;46.52;98963.06;4952781;28;6969;-78
2024/01/01 01:13:15;;;;;;;;;;;;;;;12.90;46.70;98959.47;4954338;28;7240;-77
2024/01/01 01:15:41;;;;;;;;;;;;;;;12.72;48.02;98970.28;4939911;28;7317;-78
2024/01/01 01:18:06;;;;;;;;;;;;;;;12.50;48.10;98957.94;4920337;28;7207;-77
2024/01/01 01:20:32;;;;;;;;;;;;;;;12.29;48.89;98980.69;4950806;28;6969;-79
2024/01/01 01:22:58;;;;;;;;;;;;;;;12.08;49.83;98995.75;4949622;28;6780;-78
2024/01/01 01:25:24;;;;;;;;;;;;;;;11.91;50.33;98979.97;4951744;28;6931;-78
2024/01/01 01:27:50;;;;;;;;;;;;;;;11.76;50.76;99001.06;4950505;28;6844;-78
2024/01/01 01:30:16;;;;;;;;;;;;;;;11.64;51.08;98993.09;4949191;28;7069;-78
2024/01/01 01:32:41;;;;;;;;;;;;;;;11.56;52.17;99017.75;4939545;28;7006;-77
2024/01/01 01:35:07;;;;;;;;;;;;;;;11.45;52.53;99025.22;4933168;28;8586;-76
2024/01/01 01:37:33;;;;;;;;;;;;;;;11.35;52.94;99027.56;4929569;28;6988;-77
2024/01/01 01:39:59;;;;;;;;;;;;;;;11.26;53.13;99027.38;4957975;28;6792;-74
2024/01/01 01:42:25;;;;;;;;;;;;;;;11.15;53.82;99021.97;4948968;28;6959;-74
2024/01/01 01:44:50;;;;;;;;;;;;;;;11.06;54.45;99040.59;4963937;28;6780;-74
2024/01/01 01:47:16;;;;;;;;;;;;;;;10.98;54.60;99035.25;4966297;28;7327;-74
2024/01/01 01:49:43;;;;;;;;;;;;;;;10.94;55.19;99038.56;4963980;28;6942;-74
2024/01/01 01:52:10;;;;;;;;;;;;;;;10.90;55.39;99046.16;4945846;28;6964;-74
2024/01/01 01:54:36;;;;;;;;;;;;;;;10.84;55.82;99052.84;4966920;28;7020;-74
2024/01/01 01:57:03;;;;;;;;;;;;;;;10.79;55.74;99038.19;4957568;28;7210;-74
2024/01/01 01:59:29;;;;;;;;;;;;;;;10.77;56.50;99044.97;4977689;28;6792;-74
2024/01/01 02:01:57;;;;;;;;;;;;;;;10.74;56.62;99029.53;4978775;28;7187;-74
2024/01/01 02:04:24;;;;;;;;;;;;;;;10.69;56.68;99027.69;4979617;28;6854;-74
2024/01/01 02:06:49;;;;;;;;;;;;;;;10.68;56.81;99025.13;4975600;28;6784;-74
2024/01/01 02:09:15;;;;;;;;;;;;;;;10.66;57.27;99022.50;4974614;28;7209;-74
2024/01/01 02:11:41;;;;;;;;;;;;;;;10.65;57.26;99023.34;4964891;28;6946;-74
2024/01/01 02:14:11;;;;;;;;;;;;;;;10.66;57.24;99027.63;4963684;28;7355;-74
2024/01/01 02:16:39;;;;;;;;;;;;;;;10.66;57.36;99034.44;4980092;28;6776;-74
2024/01/01 02:19:24;;;;;;;;;;;;;;;10.66;57.81;99035.31;4981316;28;6845;-74
2024/01/01 02:21:52;;;;;;;;;;;;;;;10.66;57.90;99037.88;4979747;28;6804;-74
2024/01/01 02:24:18;;;;;;;;;;;;;;;10.67;57.97;99043.84;4958740;28;6772;-74
2024/01/01 02:26:45;;;;;;;;;;;;;;;10.66;58.27;99040.44;4978442;28;7047;-74
2024/01/01 02:29:12;;;;;;;;;;;;;;;10.66;58.05;99022.50;4981043;28;7256;-74
2024/01/01 02:31:38;;;;;;;;;;;;;;;10.66;58.13;99017.38;4973188;28;6780;-74
2024/01/01 02:34:04;;;;;;;;;;;;;;;10.68;58.11;99035.38;4967149;28;6994;-74
2024/01/01 02:36:35;;;;;;;;;;;;;;;10.68;57.93;99027.69;4974373;28;6924;-74
2024/01/01 02:39:02;;;;;;;;;;;;;;;10.69;58.06;99042.22;4956090;28;7003;-75
2024/01/01 02:41:28;;;;;;;;;;;;;;;10.70;58.36;99039.69;4973257;28;6864;-75
2024/01/01 02:43:54;;;;;;;;;;;;;;;10.74;58.46;99034.66;4971637;28;6764;-74
2024/01/01 02:46:19;;;;;;;;;;;;;;;10.75;57.96;99042.34;4971422;28;6756;-74
2024/01/01 02:48:45;;;;;;;;;;;;;;;10.77;58.15;99034.72;4978222;28;6756;-76
2024/01/01 02:51:11;;;;;;;;;;;;;;;10.78;58.05;99036.44;4955170;28;7138;-77
2024/01/01 02:53:36;;;;;;;;;;;;;;;10.79;58.01;99043.31;4945870;28;6796;-77
2024/01/01 02:56:02;;;;;;;;;;;;;;;10.79;57.91;99048.44;4949850;28;7075;-76
2024/01/01 02:58:28;;;;;;;;;;;;;;;10.81;57.92;99054.47;4949146;28;7348;-76
2024/01/01 03:00:54;;;;;;;;;;;;;;;10.81;57.53;99065.59;4937133;28;7111;-77
2024/01/01 03:03:20;;;;;;;;;;;;;;;10.83;57.82;99063.94;4949564;28;6934;-77
2024/01/01 03:05:45;;;;;;;;;;;;;;;10.89;57.39;99044.44;4952465;28;7173;-76
2024/01/01 03:08:12;;;;;;;;;;;;;;;10.94;57.52;99048.84;4953828;28;6772;-77
2024/01/01 03:10:37;;;;;;;;;;;;;;;11.01;57.12;99056.66;4944465;28;6804;-77
2024/01/01 03:13:03;;;;;;;;;;;;;;;11.04;57.22;99054.19;4946683;28;8533;-77
2024/01/01 03:15:29;;;;;;;;;;;;;;;11.05;56.35;99055.91;4954880;28;6980;-77
2024/01/01 03:17:54;;;;;;;;;;;;;;;11.07;56.46;99051.69;4930407;28;7027;-77
2024/01/01 03:20:20;;;;;;;;;;;;;;;11.09;56.17;99058.59;4955546;28;6984;-77
2024/01/01 03:22:46;;;;;;;;;;;;;;;11.13;56.19;99067.22;4949121;28;6975;-76
2024/01/01 03:25:12;;;;;;;;;;;;;;;11.18;56.17;99062.22;4949562;28;7630;-77
2024/01/01 03:27:38;;;;;;;;;;;;;;;11.22;56.66;99064.91;4949501;28;6888;-77
2024/01/01 03:30:08;;;;;;;;;;;;;;;11.30;56.59;99069.31;4954921;28;7624;-77
2024/01/01 03:32:37;;;;;;;;;;;;;;;11.37;55.83;99076.34;4949516;28;6796;-76
2024/01/01 03:35:04;;;;;;;;;;;;;;;11.44;55.82;99064.50;4946170;28;6835;-77
2024/01/01 03:37:30;;;;;;;;;;;;;;;11.50;55.35;99070.66;4951691;28;7231;-78
2024/01/01 03:39:55;;;;;;;;;;;;;;;11.57;55.57;99073.34;4946436;28;8603;-78
2024/01/01 03:42:21;;;;;;;;;;;;;;;11.60;55.19;99056.34;4947755;28;6938;-77
2024/01/01 03:44:47;;;;;;;;;;;;;;;11.66;54.46;99056.47;4954931;28;7223;-78
2024/01/01 03:47:12;;;;;;;;;;;;;;;11.72;54.41;99063.44;4950366;28;6968;-77
2024/01/01 03:49:39;;;;;;;;;;;;;;;11.75;53.89;99047.25;4947036;28;7842;-78
2024/01/01 03:52:05;;;;;;;;;;;;;;;11.77;53.86;99059.25;4960176;28;7141;-77
2024/01/01 03:54:31;;;;;;;;;;;;;;;11.80;54.07;99053.34;4949171;28;7475;-77
2024/01/01 03:56:56;;;;;;;;;;;;;;;11.84;53.96;99050.00;4949813;28;6964;-78
2024/01/01 03:59:22;;;;;;;;;;;;;;;11.84;53.83;99049.13;4949513;28;7389;-78
2024/01/01 04:01:47;;;;;;;;;;;;;;;11.86;53.49;99060.28;4947526;28;7015;-77
2024/01/01 04:04:13;;;;;;;;;;;;;;;11.86;53.44;99047.47;4951788;28;6768;-78
2024/01/01 04:06:39;;;;;;;;;;;;;;;11.87;53.02;99052.63;4954026;28;7117;-78
2024/01/01 04:09:04;;;;;;;;;;;;;;;11.89;52.89;99050.13;4950909;28;6768;-76
2024/01/01 04:11:30;;;;;;;;;;;;;;;11.86;53.13;99040.63;4946211;28;7112;-78
2024/01/01 04:13:56;;;;;;;;;;;;;;;11.86;52.57;99060.28;4949180;28;6987;-76
2024/01/01 04:16:21;;;;;;;;;;;;;;;11.84;51.96;99050.00;4946987;28;7675;-78
2024/01/01 04:18:47;;;;;;;;;;;;;;;11.85;52.42;99050.88;4953909;28;6776;-77
2024/01/01 04:21:13;;;;;;;;;;;;;;;11.89;52.48;99057.81;4958539;28;6903;-78
2024/01/01 04:23:38;;;;;;;;;;;;;;;11.89;51.96;99052.69;4954574;28;7216;-78
2024/01/01 04:26:04;;;;;;;;;;;;;;;11.87;51.72;99047.50;4953524;28;6832;-78
2024/01/01 04:28:29;;;;;;;;;;;;;;;11.83;51.47;99066.25;4953812;28;6927;-76
2024/01/01 04:30:55;;;;;;;;;;;;;;;11.80;51.77;99061.91;4949083;28;6948;-78
2024/01/01 04:33:21;;;;;;;;;;;;;;;11.78;51.56;99055.88;4957440;28;7077;-77
2024/01/01 04:35:46;;;;;;;;;;;;;;;11.77;51.81;99064.41;4953711;28;6760;-78
2024/01/01 04:38:13;;;;;;;;;;;;;;;11.75;51.50;99060.94;4956990;28;7845;-76
2024/01/01 04:40:39;;;;;;;;;;;;;;;11.75;52.01;99060.94;4952473;28;6784;-77
2024/01/01 04:43:05;;;;;;;;;;;;;;;11.77;52.12;99061.81;4947099;28;7366;-78
2024/01/01 04:45:36;;;;;;;;;;;;;;;11.78;51.62;99066.16;4949002;28;7226;-78
2024/01/01 04:48:03;;;;;;;;;;;;;;;11.83;52.35;99052.53;4956307;28;7324;-77
2024/01/01 04:50:30;;;;;;;;;;;;;;;11.88;51.83;99056.06;4949181;28;6796;-78
2024/01/01 04:52:56;;;;;;;;;;;;;;;11.92;51.64;99063.00;4953475;28;7019;-77
2024/01/01 04:55:21;;;;;;;;;;;;;;;11.93;51.34;99063.03;4945235;28;6780;-78
2024/01/01 04:57:47;;;;;;;;;;;;;;;11.95;51.31;99066.50;4954409;28;7268;-78
2024/01/01 05:00:14;;;;;;;;;;;;;;;11.93;51.41;99050.22;4933079;28;7225;-76
2024/01/01 05:02:40;;;;;;;;;;;;;;;11.89;51.68;99063.78;4946619;28;7150;-78
2024/01/01 05:05:08;;;;;;;;;;;;;;;11.89;50.82;99058.66;4936091;28;7046;-76
2024/01/01 05:07:36;;;;;;;;;;;;;;;11.88;51.55;99048.34;4952485;28;7495;-77
2024/01/01 05:10:01;;;;;;;;;;;;;;;11.89;50.98;99063.78;4953586;28;6992;-77
2024/01/01 05:12:27;;;;;;;;;;;;;;;11.88;51.01;99067.19;4944829;28;6952;-76
2024/01/01 05:14:53;;;;;;;;;;;;;;;11.92;51.62;99079.25;4950102;28;6957;-77
2024/01/01 05:17:19;;;;;;;;;;;;;;;11.95;51.81;99079.34;4950337;28;7234;-77
2024/01/01 05:19:44;;;;;;;;;;;;;;;11.99;51.31;99080.28;4953126;28;6780;-77
2024/01/01 05:22:10;;;;;;;;;;;;;;;12.02;51.06;99067.53;4950542;28;6800;-78
2024/01/01 05:24:36;;;;;;;;;;;;;;;12.07;50.85;99076.22;4955723;28;7007;-77
2024/01/01 05:27:03;;;;;;;;;;;;;;;12.12;50.58;99088.25;4953225;28;6842;-77
2024/01/01 05:29:30;;;;;;;;;;;;;;;12.14;50.47;99097.75;4953490;28;7281;-78
2024/01/01 05:31:56;;;;;;;;;;;;;;;12.17;51.09;99112.34;4936235;28;7063;-78
2024/01/01 05:34:23;;;;;;;;;;;;;;;12.18;50.97;99106.38;4939217;28;7020;-77
2024/01/01 05:36:49;;;;;;;;;;;;;;;12.18;50.57;99107.22;4956480;28;6804;-77
2024/01/01 05:39:15;;;;;;;;;;;;;;;12.18;50.99;99111.53;4953812;28;6960;-77
2024/01/01 05:41:40;;;;;;;;;;;;;;;12.11;50.97;99107.94;4948849;28;6972;-77
2024/01/01 05:44:06;;;;;;;;;;;;;;;12.02;50.86;99111.19;4952141;28;6772;-78
2024/01/01 05:46:32;;;;;;;;;;;;;;;11.89;51.19;99116.88;4954991;28;7023;-78
2024/01/01 05:48:59;;;;;;;;;;;;;;;11.77;51.69;99133.69;4946503;28;6951;-78
2024/01/01 05:51:24;;;;;;;;;;;;;;;11.66;51.89;99136.03;4951473;28;7239;-77
2024/01/01 05:53:50;;;;;;;;;;;;;;;11.57;51.98;99134.94;4934538;28;7150;-79
2024/01/01 05:56:16;;;;;;;;;;;;;;;11.45;52.92;99138.97;4945452;28;6955;-78
2024/01/01 05:58:41;;;;;;;;;;;;;;;11.38;53.11;99140.50;4947261;28;7333;-79
2024/01/01 06:01:07;;;;;;;;;;;;;;;11.31;53.33;99146.31;4944123;28;6784;-78
2024/01/01 06:03:33;;;;;;;;;;;;;;;11.21;53.85;99142.66;4947145;28;6991;-78
2024/01/01 06:05:58;;;;;;;;;;;;;;;11.13;53.75;99146.72;4946739;28;6951;-79
2024/01/01 06:08:24;;;;;;;;;;;;;;;11.03;54.34;99143.03;4950940;28;7401;-79
2024/01/01 06:10:50;;;;;;;;;;;;;;;11.00;54.26;99152.34;4939617;28;7489;-77
2024/01/01 06:13:15;;;;;;;;;;;;;;;10.90;54.59;99141.84;4950103;28;7242;-79
2024/01/01 06:15:41;;;;;;;;;;;;;;;10.84;54.72;99149.41;4948101;28;7037;-78
2024/01/01 06:18:06;;;;;;;;;;;;;;;10.77;55.26;99142.38;4948835;28;6956;-78
2024/01/01 06:20:32;;;;;;;;;;;;;;;10.73;55.48;99149.09;4948855;28;7078;-78
2024/01/01 06:22:58;;;;;;;;;;;;;;;10.69;55.54;99153.25;4952686;28;6848;-77
2024/01/01 06:25:23;;;;;;;;;;;;;;;10.67;55.40;99165.19;4955547;28;6836;-78
2024/01/01 06:27:50;;;;;;;;;;;;;;;10.63;55.43;99158.25;4950712;28;6914;-78
2024/01/01 06:30:16;;;;;;;;;;;;;;;10.62;56.07;99173.56;4954444;28;6923;-76
2024/01/01 06:32:41;;;;;;;;;;;;;;;10.61;55.73;99167.56;4946553;28;6793;-78
2024/01/01 06:35:07;;;;;;;;;;;;;;;10.61;56.24;99176.94;4951785;28;7143;-78
2024/01/01 06:37:33;;;;;;;;;;;;;;;10.60;56.33;99177.78;4951170;28;7027;-78
2024/01/01 06:39:59;;;;;;;;;;;;;;;10.59;56.50;99193.97;4935468;28;6939;-77
2024/01/01 06:42:25;;;;;;;;;;;;;;;10.58;56.87;99205.91;4921548;28;6979;-78
2024/01/01 06:44:51;;;;;;;;;;;;;;;10.58;57.07;99197.38;4933245;28;6776;-78
2024/01/01 06:47:16;;;;;;;;;;;;;;;10.58;56.87;99200.78;4954258;28;6975;-78
2024/01/01 06:49:42;;;;;;;;;;;;;;;10.62;56.93;99194.94;4949730;28;6804;-78
2024/01/01 06:52:08;;;;;;;;;;;;;;;10.69;56.98;99203.66;4948507;28;7202;-76
2024/01/01 06:54:37;;;;;;;;;;;;;;;10.76;56.55;99207.25;4938990;28;6922;-77
2024/01/01 06:57:03;;;;;;;;;;;;;;;10.83;56.08;99206.63;4945567;28;7005;-77
2024/01/01 06:59:30;;;;;;;;;;;;;;;10.89;56.29;99209.31;4943725;28;6974;-77
2024/01/01 07:01:58;;;;;;;;;;;;;;;10.94;56.13;99222.28;4935987;28;7165;-77
2024/01/01 07:04:25;;;;;;;;;;;;;;;10.96;56.07;99215.50;4948724;28;6951;-75
2024/01/01 07:06:51;;;;;;;;;;;;;;;10.97;55.94;99217.25;4949056;28;7036;-76
2024/01/01 07:09:17;;;;;;;;;;;;;;;10.95;56.33;99218.88;4948032;28;7372;-77
2024/01/01 07:11:44;;;;;;;;;;;;;;;10.89;55.85;99223.84;4922371;28;6951;-78
2024/01/01 07:14:10;;;;;;;;;;;;;;;10.85;56.08;99233.16;4947720;28;7767;-77
2024/01/01 07:16:35;;;;;;;;;;;;;;;10.83;56.08;99234.81;4937262;28;7159;-77
2024/01/01 07:19:01;;;;;;;;;;;;;;;10.81;55.54;99237.31;4932260;28;7052;-77
2024/01/01 07:21:26;;;;;;;;;;;;;;;10.81;55.94;99251.81;4949695;28;6971;-76
2024/01/01 07:23:52;;;;;;;;;;;;;;;10.81;55.99;99246.69;4950216;28;6768;-78
2024/01/01 07:26:18;;;;;;;;;;;;;;;10.80;56.52;99257.78;4947229;28;7140;-77
2024/01/01 07:28:43;;;;;;;;;;;;;;;10.75;56.02;99252.50;4946419;28;6792;-76
2024/01/01 07:31:12;;;;;;;;;;;;;;;10.67;55.74;99254.88;4950377;28;7208;-75
2024/01/01 07:33:38;;;;;;;;;;;;;;;10.60;56.04;99260.63;4973327;28;7439;-75
2024/01/01 07:36:10;;;;;;;;;;;;;;;10.53;56.34;99277.50;4965057;28;7377;-75
2024/01/01 07:38:35;;;;;;;;;;;;;;;10.47;57.13;99263.66;4948259;28;7342;-74
2024/01/01 07:41:01;;;;;;;;;;;;;;;10.41;56.73;99283.13;4974447;28;6768;-74
2024/01/01 07:43:26;;;;;;;;;;;;;;;10.39;56.62;99284.75;4953572;28;7283;-74
2024/01/01 07:45:52;;;;;;;;;;;;;;;10.39;57.10;99283.91;4972978;28;6776;-74
2024/01/01 07:48:18;;;;;;;;;;;;;;;10.39;57.22;99289.00;4969198;28;6799;-75
2024/01/01 07:50:43;;;;;;;;;;;;;;;10.37;57.12;99288.06;4973525;28;6903;-75
2024/01/01 07:53:09;;;;;;;;;;;;;;;10.39;57.01;99300.13;4965519;28;7077;-74
2024/01/01 07:55:36;;;;;;;;;;;;;;;10.42;57.07;99297.66;4975287;28;6776;-75
2024/01/01 07:58:02;;;;;;;;;;;;;;;10.46;57.05;99311.44;4968774;28;6890;-75
2024/01/01 08:00:27;;;;;;;;;;;;;;;10.51;57.18;99309.03;4963013;28;7582;-75
2024/01/01 08:02:53;;;;;;;;;;;;;;;10.54;57.11;99324.50;4963802;28;7007;-75
2024/01/01 08:05:19;;;;;;;;;;;;;;;10.59;57.17;99317.81;4980185;28;6760;-75
2024/01/01 08:07:47;;;;;;;;;;;;;;;10.65;56.66;99314.56;4976533;28;6780;-75
2024/01/01 08:10:17;;;;;;;;;;;;;;;10.68;56.80;99315.53;4974652;28;6976;-75
2024/01/01 08:12:43;;;;;;;;;;;;;;;10.72;57.11;99318.19;4972335;28;6850;-75
2024/01/01 08:15:08;;;;;;;;;;;;;;;10.70;56.61;99316.44;4973190;28;6991;-75
2024/01/01 08:17:34;;;;;;;;;;;;;;;10.72;56.63;99302.81;4977561;28;7159;-75
2024/01/01 08:20:00;;;;;;;;;;;;;;;10.73;57.02;99325.94;4976759;28;7219;-75
2024/01/01 08:22:25;;;;;;;;;;;;;;;10.78;56.54;99334.63;4972627;28;6784;-75
2024/01/01 08:24:51;;;;;;;;;;;;;;;10.81;56.63;99321.91;4970867;28;6823;-75
2024/01/01 08:27:17;;;;;;;;;;;;;;;10.87;56.08;99344.28;4979889;28;6788;-75
2024/01/01 08:29:42;;;;;;;;;;;;;;;10.94;56.78;99332.50;4976687;28;6776;-75
2024/01/01 08:32:08;;;;;;;;;;;;;;;11.00;56.09;99344.63;4971462;28;6927;-74
2024/01/01 08:34:34;;;;;;;;;;;;;;;11.06;55.95;99344.84;4978452;28;6900;-74
2024/01/01 08:37:01;;;;;;;;;;;;;;;11.13;56.24;99356.13;4980271;28;7109;-75
2024/01/01 08:39:27;;;;;;;;;;;;;;;11.16;55.45;99340.84;4976605;28;6941;-74
2024/01/01 08:41:53;;;;;;;;;;;;;;;11.21;55.64;99347.84;4972697;28;7138;-75
2024/01/01 08:44:19;;;;;;;;;;;;;;;11.18;55.80;99334.06;4978295;28;6988;-75
2024/01/01 08:46:44;;;;;;;;;;;;;;;11.14;55.41;99356.19;4964304;28;6944;-75
2024/01/01 08:49:10;;;;;;;;;;;;;;;11.11;55.56;99354.41;4977628;28;6978;-75
2024/01/01 08:51:36;;;;;;;;;;;;;;;11.07;55.73;99360.28;4977353;28;6760;-75
2024/01/01 08:54:05;;;;;;;;;;;;;;;11.07;55.67;99367.06;4954841;28;7192;-75
2024/01/01 08:56:32;;;;;;;;;;;;;;;11.06;56.41;99375.59;4980457;28;6864;-75
2024/01/01 08:58:57;;;;;;;;;;;;;;;11.07;56.33;99372.22;4980597;28;6967;-75
2024/01/01 09:01:23;;;;;;;;;;;;;;;11.09;56.59;99380.81;4979464;28;7172;-75
2024/01/01 09:03:49;;;;;;;;;;;;;;;11.15;56.13;99380.13;4974737;28;6921;-75
2024/01/01 09:06:14;;;;;;;;;;;;;;;11.20;56.18;99376.00;4976259;28;6935;-75
2024/01/01 09:08:40;;;;;;;;;;;;;;;11.24;56.34;99381.25;4978130;28;6851;-75
2024/01/01 09:11:06;;;;;;;;;;;;;;;11.31;56.60;99386.59;4979903;28;6896;-75
2024/01/01 09:13:32;;;;;;;;;;;;;;;11.34;56.38;99384.94;4959981;28;6800;-75
2024/01/01 09:15:57;;;;;;;;;;;;;;;11.38;56.34;99389.34;4964676;28;7157;-75
2024/01/01 09:18:23;;;;;;;;;;;;;;;11.44;55.58;99401.50;4959094;28;8310;-74
2024/01/01 09:20:49;;;;;;;;;;;;;;;11.49;56.11;99392.25;4977855;28;6740;-75
2024/01/01 09:23:14;;;;;;;;;;;;;;;11.53;55.95;99388.91;4977761;28;7005;-75
2024/01/01 09:25:40;;;;;;;;;;;;;;;11.58;55.65;99401.00;4960891;28;7028;-75
2024/01/01 09:28:07;;;;;;;;;;;;;;;11.59;55.77;99407.88;4967489;28;7112;-75
2024/01/01 09:30:32;;;;;;;;;;;;;;;11.62;55.40;99392.56;4967477;28;7231;-75
2024/01/01 09:32:58;;;;;;;;;;;;;;;11.64;55.20;99407.19;4960579;28;7357;-75
2024/01/01 09:35:24;;;;;;;;;;;;;;;11.69;55.34;99421.84;4978317;28;7151;-75
2024/01/01 09:37:53;;;;;;;;;;;;;;;11.72;55.48;99415.09;4976781;28;6772;-75
2024/01/01 09:40:23;;;;;;;;;;;;;;;11.78;55.15;99422.97;4977306;28;6815;-75
2024/01/01 09:42:50;;;;;;;;;;;;;;;11.80;55.31;99423.88;4976440;28;7170;-75
2024/01/01 09:45:16;;;;;;;;;;;;;;;11.86;55.04;99437.69;4962055;28;6971;-75
2024/01/01 09:47:43;;;;;;;;;;;;;;;11.86;54.39;99430.88;4972469;28;6764;-77
2024/01/01 09:50:10;;;;;;;;;;;;;;;11.84;54.34;99439.34;4966850;28;7191;-75
2024/01/01 09:52:36;;;;;;;;;;;;;;;11.79;54.14;99439.22;4962564;28;6919;-74
2024/01/01 09:55:03;;;;;;;;;;;;;;;11.76;54.72;99442.56;4955234;28;7612;-74
2024/01/01 09:57:28;;;;;;;;;;;;;;;11.77;54.13;99448.59;4966321;28;6970;-74
2024/01/01 09:59:54;;;;;;;;;;;;;;;11.80;54.75;99453.81;4965268;28;7007;-75
2024/01/01 10:02:24;;;;;;;;;;;;;;;11.81;54.08;99451.28;4969656;28;8516;-74
2024/01/01 10:04:49;;;;;;;;;;;;;;;11.81;53.91;99461.56;4953363;28;6808;-74
2024/01/01 10:07:28;;;;;;;;;;;;;;;11.80;53.86;99459.81;4967816;28;6955;-74
2024/01/01 10:09:53;;;;;;;;;;;;;;;11.80;53.87;99475.22;4971001;28;7218;-75
2024/01/01 10:12:23;;;;;;;;;;;;;;;11.81;54.62;99482.09;4968793;28;6946;-74
2024/01/01 10:14:50;;;;;;;;;;;;;;;11.88;54.58;99485.69;4968319;28;6803;-75
2024/01/01 10:17:18;;;;;;;;;;;;;;;11.97;54.57;99469.66;4971388;28;7270;-75
2024/01/01 10:19:50;;;;;;;;;;;;;;;12.05;54.25;99485.34;4968347;28;7241;-75
2024/01/01 10:22:18;;;;;;;;;;;;;;;12.10;53.89;99486.31;4947763;28;6979;-74
2024/01/01 10:24:48;;;;;;;;;;;;;;;12.13;53.83;99478.72;4964235;28;7261;-74
2024/01/01 10:27:17;;;;;;;;;;;;;;;12.17;53.73;99490.81;4966959;28;7219;-75
2024/01/01 10:29:47;;;;;;;;;;;;;;;12.19;52.89;99472.88;4951256;28;11437;-75
2024/01/01 10:32:18;;;;;;;;;;;;;;;12.22;53.51;99478.97;4967071;28;6994;-74
2024/01/01 10:34:47;;;;;;;;;;;;;;;12.26;52.98;99487.59;4971297;28;6789;-74
2024/01/01 10:37:18;;;;;;;;;;;;;;;12.29;52.55;99487.69;4949049;28;6789;-75
2024/01/01 10:39:45;;;;;;;;;;;;;;;12.31;53.39;99487.72;4973255;28;7226;-74
2024/01/01 10:42:11;;;;;;;;;;;;;;;12.31;52.97;99496.31;4972239;28;6974;-75
2024/01/01 10:44:38;;;;;;;;;;;;;;;12.34;52.68;99498.94;4966886;28;6772;-75
2024/01/01 10:47:09;;;;;;;;;;;;;;;12.43;52.78;99498.34;4968750;28;6804;-75
2024/01/01 10:49:39;;;;;;;;;;;;;;;12.54;52.46;99500.31;4968735;28;6964;-74
2024/01/01 10:52:47;;;;;;;;;;;;;;;12.58;52.10;99494.41;4966212;28;7232;-74
2024/01/01 10:55:35;;;;;;;;;;;;;;;12.56;51.51;99494.38;4957273;28;7310;-75
2024/01/01 10:58:49;;;;;;;;;;;;;;;12.56;51.59;99499.53;4969451;28;6965;-74
2024/01/01 11:01:21;;;;;;;;;;;;;;;12.55;51.78;99496.91;4951515;28;7415;-79
2024/01/01 11:03:47;;;;;;;;;;;;;;;12.58;51.91;99509.81;4937629;28;7085;-78
2024/01/01 11:06:31;;;;;;;;;;;;;;;12.59;51.65;99511.56;4949698;28;6800;-79
2024/01/01 11:09:18;;;;;;;;;;;;;;;12.49;51.47;99515.63;4939014;28;7264;-78
2024/01/01 11:11:55;;;;;;;;;;;;;;;12.30;52.46;99516.81;4948648;28;6975;-79
2024/01/01 11:14:31;;;;;;;;;;;;;;;12.12;52.21;99519.75;4945543;28;7613;-79
2024/01/01 11:17:02;;;;;;;;;;;;;;;11.96;52.84;99514.16;4946215;28;7045;-78
2024/01/01 11:19:34;;;;;;;;;;;;;;;11.87;53.24;99513.88;4948567;28;7047;-78
2024/01/01 11:22:30;;;;;;;;;;;;;;;11.84;53.62;99526.66;4951504;28;6971;-78
2024/01/01 11:25:00;;;;;;;;;;;;;;;11.86;53.47;99525.88;4932845;28;6987;-76
2024/01/01 11:27:32;;;;;;;;;;;;;;;11.89;54.02;99522.53;4948598;28;7269;-78
2024/01/01 11:30:07;;;;;;;;;;;;;;;11.91;53.75;99531.16;4946279;28;7169;-79
2024/01/01 11:32:34;;;;;;;;;;;;;;;11.96;54.05;99532.13;4950017;28;7233;-78
2024/01/01 11:35:13;;;;;;;;;;;;;;;12.01;53.35;99533.16;4953940;28;7282;-79
2024/01/01 11:37:45;;;;;;;;;;;;;;;12.10;53.38;99539.41;4937449;28;7266;-78
2024/01/01 11:40:11;;;;;;;;;;;;;;;12.13;53.74;99548.06;4949256;28;6827;-78
2024/01/01 11:42:38;;;;;;;;;;;;;;;12.19;53.63;99537.09;4948600;28;6796;-79
2024/01/01 11:45:16;;;;;;;;;;;;;;;12.22;53.03;99532.91;4949065;28;7123;-79
2024/01/01 11:47:44;;;;;;;;;;;;;;;12.26;53.66;99541.53;4942804;28;7188;-79
2024/01/01 11:50:12;;;;;;;;;;;;;;;12.30;53.06;99533.09;4945002;28;7195;-78
2024/01/01 11:52:38;;;;;;;;;;;;;;;12.32;53.28;99534.00;4950486;28;6964;-78
2024/01/01 11:55:04;;;;;;;;;;;;;;;12.34;52.70;99532.34;4935185;28;6871;-78
2024/01/01 11:57:30;;;;;;;;;;;;;;;12.40;52.84;99533.34;4950661;28;6971;-77
2024/01/01 11:59:56;;;;;;;;;;;;;;;12.45;52.36;99534.34;4946753;28;6970;-78
2024/01/01 12:02:23;;;;;;;;;;;;;;;12.48;52.63;99529.28;4946976;28;7206;-79
2024/01/01 12:04:54;;;;;;;;;;;;;;;12.54;53.25;99532.00;4928490;28;6952;-79
2024/01/01 12:07:32;;;;;;;;;;;;;;;12.62;52.80;99535.66;4944394;28;6815;-78
2024/01/01 12:10:09;;;;;;;;;;;;;;;12.66;52.65;99523.75;4919058;28;7179;-77
2024/01/01 12:12:40;;;;;;;;;;;;;;;12.65;52.14;99527.16;4949743;28;7167;-78
2024/01/01 12:15:16;;;;;;;;;;;;;;;12.61;52.57;99523.63;4939113;28;8327;-76
2024/01/01 12:17:49;;;;;;;;;;;;;;;12.55;52.10;99530.31;4949289;28;7288;-77
2024/01/01 12:20:22;;;;;;;;;;;;;;;12.54;51.94;99526.88;4919906;28;6992;-77
2024/01/01 12:22:48;;;;;;;;;;;;;;;12.59;51.81;99529.56;4949629;28;6888;-76
2024/01/01 12:25:16;;;;;;;;;;;;;;;12.62;52.65;99533.06;4948539;28;7346;-77
2024/01/01 12:27:43;;;;;;;;;;;;;;;12.67;52.05;99534.91;4936826;28;7200;-77
2024/01/01 12:30:09;;;;;;;;;;;;;;;12.72;52.33;99541.91;4949333;28;7079;-76
2024/01/01 12:32:35;;;;;;;;;;;;;;;12.75;51.59;99533.41;4934601;28;8248;-77
2024/01/01 12:35:00;;;;;;;;;;;;;;;12.78;52.06;99536.06;4949942;28;6927;-77
2024/01/01 12:37:27;;;;;;;;;;;;;;;12.81;51.83;99541.25;4939031;28;7109;-77
2024/01/01 12:39:52;;;;;;;;;;;;;;;12.87;52.03;99535.41;4949858;28;7038;-77
2024/01/01 12:42:18;;;;;;;;;;;;;;;12.91;51.41;99534.66;4939933;28;7438;-77
2024/01/01 12:44:44;;;;;;;;;;;;;;;12.96;51.58;99535.63;4958698;28;6955;-77
2024/01/01 12:47:10;;;;;;;;;;;;;;;12.99;51.81;99529.69;4936201;28;6819;-76
2024/01/01 12:49:36;;;;;;;;;;;;;;;12.99;51.25;99530.56;4955854;28;6800;-77
2024/01/01 12:52:03;;;;;;;;;;;;;;;12.98;51.25;99539.09;4954622;28;8184;-77
2024/01/01 12:54:28;;;;;;;;;;;;;;;12.98;51.26;99530.53;4955170;28;6792;-77
2024/01/01 12:56:54;;;;;;;;;;;;;;;12.96;51.25;99534.78;4959352;28;7321;-78